sensor_id;sensor_type;location;lat;lon;timestamp;P1;durP1;ratioP1;P2;durP2;ratioP2
71413;SDS011;59226;53.212;5.728;2023-03-23T00:00:35;2.43;;;0.97;;
71413;SDS011;59226;53.212;5.728;2023-03-23T00:03:00;1.65;;;0.65;;
71413;SDS011;59226;53.212;5.728;2023-03-23T00:05:26;2.60;;;1.03;;
71413;SDS011;59226;53.212;5.728;2023-03-23T00:07:53;1.50;;;0.63;;
71413;SDS011;59226;53.212;5.728;2023-03-23T00:10:20;3.47;;;0.93;;
71413;SDS011;59226;53.212;5.728;2023-03-23T00:12:45;3.03;;;1.50;;
71413;SDS011;59226;53.212;5.728;2023-03-23T00:15:14;3.22;;;1.48;;
71413;SDS011;59226;53.212;5.728;2023-03-23T00:17:41;3.55;;;1.73;;
71413;SDS011;59226;53.212;5.728;2023-03-23T00:20:08;3.47;;;1.40;;
71413;SDS011;59226;53.212;5.728;2023-03-23T00:22:36;3.33;;;1.97;;
71413;SDS011;59226;53.212;5.728;2023-03-23T00:25:03;5.00;;;1.95;;
71413;SDS011;59226;53.212;5.728;2023-03-23T00:27:28;3.40;;;1.50;;
71413;SDS011;59226;53.212;5.728;2023-03-23T00:29:54;4.00;;;1.80;;
71413;SDS011;59226;53.212;5.728;2023-03-23T00:32:20;4.00;;;1.63;;
71413;SDS011;59226;53.212;5.728;2023-03-23T00:34:46;6.65;;;2.95;;
71413;SDS011;59226;53.212;5.728;2023-03-23T00:37:13;6.13;;;3.25;;
71413;SDS011;59226;53.212;5.728;2023-03-23T00:39:41;5.93;;;2.33;;
71413;SDS011;59226;53.212;5.728;2023-03-23T00:42:09;5.40;;;2.28;;
71413;SDS011;59226;53.212;5.728;2023-03-23T00:44:34;5.63;;;2.60;;
71413;SDS011;59226;53.212;5.728;2023-03-23T00:47:00;10.93;;;3.27;;
71413;SDS011;59226;53.212;5.728;2023-03-23T00:49:25;5.57;;;2.10;;
71413;SDS011;59226;53.212;5.728;2023-03-23T00:51:51;5.73;;;2.60;;
71413;SDS011;59226;53.212;5.728;2023-03-23T00:54:17;6.55;;;3.10;;
71413;SDS011;59226;53.212;5.728;2023-03-23T00:56:42;7.93;;;3.60;;
71413;SDS011;59226;53.212;5.728;2023-03-23T00:59:07;10.00;;;4.10;;
71413;SDS011;59226;53.212;5.728;2023-03-23T01:01:33;6.67;;;3.50;;
71413;SDS011;59226;53.212;5.728;2023-03-23T01:03:59;10.73;;;3.50;;
71413;SDS011;59226;53.212;5.728;2023-03-23T01:06:29;7.57;;;3.23;;
71413;SDS011;59226;53.212;5.728;2023-03-23T01:08:55;4.05;;;2.30;;
71413;SDS011;59226;53.212;5.728;2023-03-23T01:11:21;3.85;;;2.03;;
71413;SDS011;59226;53.212;5.728;2023-03-23T01:13:47;5.00;;;1.93;;
71413;SDS011;59226;53.212;5.728;2023-03-23T01:16:12;4.97;;;1.73;;
71413;SDS011;59226;53.212;5.728;2023-03-23T01:18:38;3.67;;;1.67;;
71413;SDS011;59226;53.212;5.728;2023-03-23T01:21:08;4.73;;;1.90;;
71413;SDS011;59226;53.212;5.728;2023-03-23T01:23:35;4.75;;;2.03;;
71413;SDS011;59226;53.212;5.728;2023-03-23T01:26:04;6.07;;;2.47;;
71413;SDS011;59226;53.212;5.728;2023-03-23T01:28:29;5.25;;;2.10;;
71413;SDS011;59226;53.212;5.728;2023-03-23T01:30:59;3.90;;;1.93;;
71413;SDS011;59226;53.212;5.728;2023-03-23T01:33:24;5.90;;;1.77;;
71413;SDS011;59226;53.212;5.728;2023-03-23T01:35:49;6.00;;;2.10;;
71413;SDS011;59226;53.212;5.728;2023-03-23T01:38:14;4.90;;;1.77;;
71413;SDS011;59226;53.212;5.728;2023-03-23T01:40:39;5.47;;;1.73;;
71413;SDS011;59226;53.212;5.728;2023-03-23T01:43:08;6.20;;;2.07;;
71413;SDS011;59226;53.212;5.728;2023-03-23T01:45:34;7.63;;;2.17;;
71413;SDS011;59226;53.212;5.728;2023-03-23T01:48:05;6.43;;;2.05;;
71413;SDS011;59226;53.212;5.728;2023-03-23T01:50:34;4.57;;;2.30;;
71413;SDS011;59226;53.212;5.728;2023-03-23T01:53:01;5.07;;;1.95;;
71413;SDS011;59226;53.212;5.728;2023-03-23T01:55:27;5.85;;;1.58;;
71413;SDS011;59226;53.212;5.728;2023-03-23T01:57:53;5.93;;;2.13;;
71413;SDS011;59226;53.212;5.728;2023-03-23T02:00:19;3.22;;;1.50;;
71413;SDS011;59226;53.212;5.728;2023-03-23T02:02:47;4.57;;;1.17;;
71413;SDS011;59226;53.212;5.728;2023-03-23T02:05:14;3.90;;;1.63;;
71413;SDS011;59226;53.212;5.728;2023-03-23T02:07:39;7.37;;;1.40;;
71413;SDS011;59226;53.212;5.728;2023-03-23T02:10:05;4.95;;;1.40;;
71413;SDS011;59226;53.212;5.728;2023-03-23T02:12:30;7.30;;;1.87;;
71413;SDS011;59226;53.212;5.728;2023-03-23T02:14:56;8.60;;;1.67;;
71413;SDS011;59226;53.212;5.728;2023-03-23T02:22:39;2.53;;;1.05;;
71413;SDS011;59226;53.212;5.728;2023-03-23T02:25:18;2.00;;;1.00;;
71413;SDS011;59226;53.212;5.728;2023-03-23T02:35:44;1.98;;;0.60;;
71413;SDS011;59226;53.212;5.728;2023-03-23T02:38:21;3.47;;;0.97;;
71413;SDS011;59226;53.212;5.728;2023-03-23T02:40:48;2.40;;;1.20;;
71413;SDS011;59226;53.212;5.728;2023-03-23T02:43:15;3.17;;;1.80;;
71413;SDS011;59226;53.212;5.728;2023-03-23T02:45:43;3.65;;;1.05;;
71413;SDS011;59226;53.212;5.728;2023-03-23T02:48:09;2.08;;;1.05;;
71413;SDS011;59226;53.212;5.728;2023-03-23T02:50:35;4.03;;;1.30;;
71413;SDS011;59226;53.212;5.728;2023-03-23T02:53:01;2.90;;;1.58;;
71413;SDS011;59226;53.212;5.728;2023-03-23T02:55:27;1.30;;;0.55;;
71413;SDS011;59226;53.212;5.728;2023-03-23T02:57:53;1.97;;;0.73;;
71413;SDS011;59226;53.212;5.728;2023-03-23T03:00:19;2.15;;;0.85;;
71413;SDS011;59226;53.212;5.728;2023-03-23T03:02:51;1.47;;;0.87;;
71413;SDS011;59226;53.212;5.728;2023-03-23T03:10:31;2.25;;;0.95;;
71413;SDS011;59226;53.212;5.728;2023-03-23T03:15:44;2.72;;;0.90;;
71413;SDS011;59226;53.212;5.728;2023-03-23T03:18:13;2.63;;;1.17;;
71413;SDS011;59226;53.212;5.728;2023-03-23T03:20:47;1.73;;;0.63;;
71413;SDS011;59226;53.212;5.728;2023-03-23T03:23:14;3.58;;;0.93;;
71413;SDS011;59226;53.212;5.728;2023-03-23T03:25:40;1.90;;;0.93;;
71413;SDS011;59226;53.212;5.728;2023-03-23T03:28:07;2.25;;;0.85;;
71413;SDS011;59226;53.212;5.728;2023-03-23T03:30:33;1.80;;;0.77;;
71413;SDS011;59226;53.212;5.728;2023-03-23T03:33:01;1.20;;;0.60;;
71413;SDS011;59226;53.212;5.728;2023-03-23T03:35:28;3.80;;;1.13;;
71413;SDS011;59226;53.212;5.728;2023-03-23T03:37:54;4.03;;;1.00;;
71413;SDS011;59226;53.212;5.728;2023-03-23T03:40:20;2.40;;;0.73;;
71413;SDS011;59226;53.212;5.728;2023-03-23T03:42:46;0.90;;;0.60;;
71413;SDS011;59226;53.212;5.728;2023-03-23T03:45:15;1.20;;;0.77;;
71413;SDS011;59226;53.212;5.728;2023-03-23T03:47:41;0.98;;;0.50;;
71413;SDS011;59226;53.212;5.728;2023-03-23T03:50:07;2.10;;;1.07;;
71413;SDS011;59226;53.212;5.728;2023-03-23T03:52:32;1.60;;;0.40;;
71413;SDS011;59226;53.212;5.728;2023-03-23T03:54:58;2.83;;;0.90;;
71413;SDS011;59226;53.212;5.728;2023-03-23T03:57:23;2.90;;;0.73;;
71413;SDS011;59226;53.212;5.728;2023-03-23T03:59:48;1.13;;;0.93;;
71413;SDS011;59226;53.212;5.728;2023-03-23T04:02:14;0.73;;;0.30;;
71413;SDS011;59226;53.212;5.728;2023-03-23T04:04:41;3.50;;;0.68;;
71413;SDS011;59226;53.212;5.728;2023-03-23T04:07:07;2.67;;;1.20;;
71413;SDS011;59226;53.212;5.728;2023-03-23T04:09:32;1.43;;;0.87;;
71413;SDS011;59226;53.212;5.728;2023-03-23T04:11:57;1.83;;;0.73;;
71413;SDS011;59226;53.212;5.728;2023-03-23T04:14:22;1.97;;;0.70;;
71413;SDS011;59226;53.212;5.728;2023-03-23T04:16:48;5.07;;;1.23;;
71413;SDS011;59226;53.212;5.728;2023-03-23T04:19:16;4.20;;;0.43;;
71413;SDS011;59226;53.212;5.728;2023-03-23T04:21:43;4.40;;;0.60;;
71413;SDS011;59226;53.212;5.728;2023-03-23T04:24:10;3.30;;;0.85;;
71413;SDS011;59226;53.212;5.728;2023-03-23T04:26:36;0.70;;;0.53;;
71413;SDS011;59226;53.212;5.728;2023-03-23T04:29:01;1.27;;;0.50;;
71413;SDS011;59226;53.212;5.728;2023-03-23T04:31:27;0.45;;;0.30;;
71413;SDS011;59226;53.212;5.728;2023-03-23T04:33:53;6.67;;;1.10;;
71413;SDS011;59226;53.212;5.728;2023-03-23T04:36:18;4.63;;;1.03;;
71413;SDS011;59226;53.212;5.728;2023-03-23T04:38:43;1.10;;;0.50;;
71413;SDS011;59226;53.212;5.728;2023-03-23T04:41:09;0.30;;;0.30;;
71413;SDS011;59226;53.212;5.728;2023-03-23T04:43:34;2.63;;;0.73;;
71413;SDS011;59226;53.212;5.728;2023-03-23T04:46:06;1.02;;;0.52;;
71413;SDS011;59226;53.212;5.728;2023-03-23T04:48:33;1.73;;;1.13;;
71413;SDS011;59226;53.212;5.728;2023-03-23T04:51:00;5.10;;;0.83;;
71413;SDS011;59226;53.212;5.728;2023-03-23T04:53:27;2.03;;;0.80;;
71413;SDS011;59226;53.212;5.728;2023-03-23T04:55:53;4.67;;;1.10;;
71413;SDS011;59226;53.212;5.728;2023-03-23T04:58:18;1.80;;;0.60;;
71413;SDS011;59226;53.212;5.728;2023-03-23T05:00:44;0.68;;;0.40;;
71413;SDS011;59226;53.212;5.728;2023-03-23T05:03:15;11.82;;;1.38;;
71413;SDS011;59226;53.212;5.728;2023-03-23T05:05:41;1.27;;;0.40;;
71413;SDS011;59226;53.212;5.728;2023-03-23T05:08:06;1.43;;;0.57;;
71413;SDS011;59226;53.212;5.728;2023-03-23T05:10:32;1.77;;;0.80;;
71413;SDS011;59226;53.212;5.728;2023-03-23T05:12:57;1.07;;;0.87;;
71413;SDS011;59226;53.212;5.728;2023-03-23T05:15:22;0.80;;;0.40;;
71413;SDS011;59226;53.212;5.728;2023-03-23T05:17:50;10.23;;;1.33;;
71413;SDS011;59226;53.212;5.728;2023-03-23T05:20:16;2.60;;;0.60;;
71413;SDS011;59226;53.212;5.728;2023-03-23T05:22:45;1.13;;;0.50;;
71413;SDS011;59226;53.212;5.728;2023-03-23T05:25:12;1.75;;;0.55;;
71413;SDS011;59226;53.212;5.728;2023-03-23T05:27:38;5.97;;;0.90;;
71413;SDS011;59226;53.212;5.728;2023-03-23T05:30:07;4.55;;;1.00;;
71413;SDS011;59226;53.212;5.728;2023-03-23T05:32:32;4.13;;;0.73;;
71413;SDS011;59226;53.212;5.728;2023-03-23T05:34:58;5.17;;;1.53;;
71413;SDS011;59226;53.212;5.728;2023-03-23T05:37:24;1.98;;;0.57;;
71413;SDS011;59226;53.212;5.728;2023-03-23T05:39:50;2.87;;;0.50;;
71413;SDS011;59226;53.212;5.728;2023-03-23T05:42:19;4.00;;;0.93;;
71413;SDS011;59226;53.212;5.728;2023-03-23T05:44:44;5.72;;;1.38;;
71413;SDS011;59226;53.212;5.728;2023-03-23T05:47:10;4.35;;;1.55;;
71413;SDS011;59226;53.212;5.728;2023-03-23T05:49:35;5.70;;;1.07;;
71413;SDS011;59226;53.212;5.728;2023-03-23T05:52:01;7.23;;;1.27;;
71413;SDS011;59226;53.212;5.728;2023-03-23T05:54:26;1.45;;;0.30;;
71413;SDS011;59226;53.212;5.728;2023-03-23T05:56:52;2.30;;;0.50;;
71413;SDS011;59226;53.212;5.728;2023-03-23T05:59:17;1.20;;;0.50;;
71413;SDS011;59226;53.212;5.728;2023-03-23T06:01:43;2.30;;;0.87;;
71413;SDS011;59226;53.212;5.728;2023-03-23T06:04:08;1.93;;;0.70;;
71413;SDS011;59226;53.212;5.728;2023-03-23T06:06:34;0.30;;;0.20;;
71413;SDS011;59226;53.212;5.728;2023-03-23T06:09:00;11.65;;;0.70;;
71413;SDS011;59226;53.212;5.728;2023-03-23T06:11:25;8.50;;;0.70;;
71413;SDS011;59226;53.212;5.728;2023-03-23T06:13:51;0.50;;;0.30;;
71413;SDS011;59226;53.212;5.728;2023-03-23T06:16:17;0.73;;;0.33;;
71413;SDS011;59226;53.212;5.728;2023-03-23T06:18:43;4.88;;;0.55;;
71413;SDS011;59226;53.212;5.728;2023-03-23T06:21:08;3.50;;;0.60;;
71413;SDS011;59226;53.212;5.728;2023-03-23T06:23:34;2.47;;;0.83;;
71413;SDS011;59226;53.212;5.728;2023-03-23T06:26:00;0.25;;;0.20;;
71413;SDS011;59226;53.212;5.728;2023-03-23T06:28:27;1.42;;;0.38;;
71413;SDS011;59226;53.212;5.728;2023-03-23T06:30:52;2.20;;;0.50;;
71413;SDS011;59226;53.212;5.728;2023-03-23T06:33:18;0.50;;;0.30;;
71413;SDS011;59226;53.212;5.728;2023-03-23T06:35:43;2.30;;;0.47;;
71413;SDS011;59226;53.212;5.728;2023-03-23T06:38:08;3.93;;;0.97;;
71413;SDS011;59226;53.212;5.728;2023-03-23T06:40:34;2.50;;;0.73;;
71413;SDS011;59226;53.212;5.728;2023-03-23T06:43:00;2.00;;;0.63;;
71413;SDS011;59226;53.212;5.728;2023-03-23T06:45:26;1.13;;;0.33;;
71413;SDS011;59226;53.212;5.728;2023-03-23T06:47:51;1.20;;;0.67;;
71413;SDS011;59226;53.212;5.728;2023-03-23T06:50:17;2.00;;;0.43;;
71413;SDS011;59226;53.212;5.728;2023-03-23T06:52:49;0.77;;;0.43;;
71413;SDS011;59226;53.212;5.728;2023-03-23T06:55:14;6.93;;;1.08;;
71413;SDS011;59226;53.212;5.728;2023-03-23T06:57:40;2.42;;;0.90;;
71413;SDS011;59226;53.212;5.728;2023-03-23T07:00:06;3.87;;;0.80;;
71413;SDS011;59226;53.212;5.728;2023-03-23T07:02:33;2.72;;;1.13;;
71413;SDS011;59226;53.212;5.728;2023-03-23T07:04:59;4.23;;;0.87;;
71413;SDS011;59226;53.212;5.728;2023-03-23T07:07:24;10.37;;;0.90;;
71413;SDS011;59226;53.212;5.728;2023-03-23T07:09:49;1.03;;;0.73;;
71413;SDS011;59226;53.212;5.728;2023-03-23T07:12:15;6.17;;;0.80;;
71413;SDS011;59226;53.212;5.728;2023-03-23T07:14:40;7.40;;;1.00;;
71413;SDS011;59226;53.212;5.728;2023-03-23T07:17:05;2.57;;;0.40;;
71413;SDS011;59226;53.212;5.728;2023-03-23T07:19:32;3.45;;;1.17;;
71413;SDS011;59226;53.212;5.728;2023-03-23T07:21:57;9.47;;;2.00;;
71413;SDS011;59226;53.212;5.728;2023-03-23T07:24:23;4.93;;;1.33;;
71413;SDS011;59226;53.212;5.728;2023-03-23T07:26:48;6.73;;;1.03;;
71413;SDS011;59226;53.212;5.728;2023-03-23T07:29:13;4.60;;;1.67;;
71413;SDS011;59226;53.212;5.728;2023-03-23T07:31:38;16.03;;;1.50;;
71413;SDS011;59226;53.212;5.728;2023-03-23T07:34:04;6.70;;;1.00;;
71413;SDS011;59226;53.212;5.728;2023-03-23T07:36:29;3.50;;;0.80;;
71413;SDS011;59226;53.212;5.728;2023-03-23T07:38:55;15.40;;;1.60;;
71413;SDS011;59226;53.212;5.728;2023-03-23T07:41:21;4.93;;;1.60;;
71413;SDS011;59226;53.212;5.728;2023-03-23T07:43:47;12.83;;;1.40;;
71413;SDS011;59226;53.212;5.728;2023-03-23T07:46:12;2.10;;;0.90;;
71413;SDS011;59226;53.212;5.728;2023-03-23T07:48:38;3.20;;;1.02;;
71413;SDS011;59226;53.212;5.728;2023-03-23T07:51:04;4.13;;;1.23;;
71413;SDS011;59226;53.212;5.728;2023-03-23T07:53:29;1.27;;;0.77;;
71413;SDS011;59226;53.212;5.728;2023-03-23T07:55:54;2.97;;;0.93;;
71413;SDS011;59226;53.212;5.728;2023-03-23T07:58:19;4.90;;;1.73;;
71413;SDS011;59226;53.212;5.728;2023-03-23T08:00:48;5.87;;;1.13;;
71413;SDS011;59226;53.212;5.728;2023-03-23T08:03:14;12.75;;;1.55;;
71413;SDS011;59226;53.212;5.728;2023-03-23T08:05:40;6.53;;;0.90;;
71413;SDS011;59226;53.212;5.728;2023-03-23T08:08:07;4.45;;;1.42;;
71413;SDS011;59226;53.212;5.728;2023-03-23T08:10:32;1.20;;;0.60;;
71413;SDS011;59226;53.212;5.728;2023-03-23T08:12:57;3.43;;;0.60;;
71413;SDS011;59226;53.212;5.728;2023-03-23T08:15:24;2.78;;;0.75;;
71413;SDS011;59226;53.212;5.728;2023-03-23T08:17:50;4.95;;;0.95;;
71413;SDS011;59226;53.212;5.728;2023-03-23T08:20:16;2.53;;;0.43;;
71413;SDS011;59226;53.212;5.728;2023-03-23T08:22:43;6.47;;;1.30;;
71413;SDS011;59226;53.212;5.728;2023-03-23T08:25:10;6.82;;;1.10;;
71413;SDS011;59226;53.212;5.728;2023-03-23T08:27:36;4.13;;;0.82;;
71413;SDS011;59226;53.212;5.728;2023-03-23T08:30:02;6.68;;;0.85;;
71413;SDS011;59226;53.212;5.728;2023-03-23T08:32:28;2.17;;;0.60;;
71413;SDS011;59226;53.212;5.728;2023-03-23T08:34:54;6.45;;;0.95;;
71413;SDS011;59226;53.212;5.728;2023-03-23T08:37:19;7.37;;;1.30;;
71413;SDS011;59226;53.212;5.728;2023-03-23T08:39:44;13.13;;;1.53;;
71413;SDS011;59226;53.212;5.728;2023-03-23T08:42:10;5.50;;;2.47;;
71413;SDS011;59226;53.212;5.728;2023-03-23T08:44:35;9.77;;;1.38;;
71413;SDS011;59226;53.212;5.728;2023-03-23T08:47:01;2.83;;;0.80;;
71413;SDS011;59226;53.212;5.728;2023-03-23T08:49:28;6.68;;;0.85;;
71413;SDS011;59226;53.212;5.728;2023-03-23T08:51:54;3.30;;;0.90;;
71413;SDS011;59226;53.212;5.728;2023-03-23T08:54:19;8.30;;;1.60;;
71413;SDS011;59226;53.212;5.728;2023-03-23T08:56:45;6.53;;;1.48;;
71413;SDS011;59226;53.212;5.728;2023-03-23T08:59:11;14.23;;;1.55;;
71413;SDS011;59226;53.212;5.728;2023-03-23T09:01:36;7.10;;;2.07;;
71413;SDS011;59226;53.212;5.728;2023-03-23T09:04:02;9.67;;;1.30;;
71413;SDS011;59226;53.212;5.728;2023-03-23T09:06:27;3.40;;;0.70;;
71413;SDS011;59226;53.212;5.728;2023-03-23T09:08:52;8.03;;;1.30;;
71413;SDS011;59226;53.212;5.728;2023-03-23T09:11:18;3.07;;;1.27;;
71413;SDS011;59226;53.212;5.728;2023-03-23T09:13:43;8.70;;;1.23;;
71413;SDS011;59226;53.212;5.728;2023-03-23T09:16:08;6.63;;;1.10;;
71413;SDS011;59226;53.212;5.728;2023-03-23T09:18:34;5.33;;;0.80;;
71413;SDS011;59226;53.212;5.728;2023-03-23T09:21:00;7.60;;;1.42;;
71413;SDS011;59226;53.212;5.728;2023-03-23T09:23:26;9.37;;;1.50;;
71413;SDS011;59226;53.212;5.728;2023-03-23T09:25:51;6.65;;;1.00;;
71413;SDS011;59226;53.212;5.728;2023-03-23T09:28:17;2.37;;;1.00;;
71413;SDS011;59226;53.212;5.728;2023-03-23T09:30:42;8.70;;;2.03;;
71413;SDS011;59226;53.212;5.728;2023-03-23T09:33:09;6.20;;;0.93;;
71413;SDS011;59226;53.212;5.728;2023-03-23T09:35:35;13.40;;;1.90;;
71413;SDS011;59226;53.212;5.728;2023-03-23T09:38:02;16.60;;;1.75;;
71413;SDS011;59226;53.212;5.728;2023-03-23T09:40:51;6.20;;;0.75;;
71413;SDS011;59226;53.212;5.728;2023-03-23T09:50:50;6.27;;;1.53;;
71413;SDS011;59226;53.212;5.728;2023-03-23T09:53:21;9.43;;;0.77;;
71413;SDS011;59226;53.212;5.728;2023-03-23T09:55:47;7.10;;;0.93;;
71413;SDS011;59226;53.212;5.728;2023-03-23T09:58:20;5.78;;;0.82;;
71413;SDS011;59226;53.212;5.728;2023-03-23T10:01:02;4.32;;;0.93;;
71413;SDS011;59226;53.212;5.728;2023-03-23T10:03:40;8.13;;;1.02;;
71413;SDS011;59226;53.212;5.728;2023-03-23T10:06:08;1.90;;;0.70;;
71413;SDS011;59226;53.212;5.728;2023-03-23T10:08:34;8.98;;;1.85;;
71413;SDS011;59226;53.212;5.728;2023-03-23T10:15:56;2.78;;;0.30;;
71413;SDS011;59226;53.212;5.728;2023-03-23T10:18:29;7.53;;;1.30;;
71413;SDS011;59226;53.212;5.728;2023-03-23T10:20:58;3.35;;;0.88;;
71413;SDS011;59226;53.212;5.728;2023-03-23T10:23:34;13.43;;;2.35;;
71413;SDS011;59226;53.212;5.728;2023-03-23T10:30:59;1.87;;;0.50;;
71413;SDS011;59226;53.212;5.728;2023-03-23T10:33:37;4.78;;;1.08;;
71413;SDS011;59226;53.212;5.728;2023-03-23T10:36:05;4.73;;;0.83;;
71413;SDS011;59226;53.212;5.728;2023-03-23T10:38:36;3.35;;;1.38;;
71413;SDS011;59226;53.212;5.728;2023-03-23T10:41:08;6.50;;;0.98;;
71413;SDS011;59226;53.212;5.728;2023-03-23T10:43:34;5.60;;;1.13;;
71413;SDS011;59226;53.212;5.728;2023-03-23T10:46:02;10.95;;;1.48;;
71413;SDS011;59226;53.212;5.728;2023-03-23T10:48:30;5.30;;;0.90;;
71413;SDS011;59226;53.212;5.728;2023-03-23T10:50:57;9.90;;;0.82;;
71413;SDS011;59226;53.212;5.728;2023-03-23T10:53:26;12.70;;;1.33;;
71413;SDS011;59226;53.212;5.728;2023-03-23T10:55:53;5.72;;;1.00;;
71413;SDS011;59226;53.212;5.728;2023-03-23T10:58:23;7.60;;;1.83;;
71413;SDS011;59226;53.212;5.728;2023-03-23T11:00:48;5.82;;;1.45;;
71413;SDS011;59226;53.212;5.728;2023-03-23T11:05:44;7.97;;;1.70;;
71413;SDS011;59226;53.212;5.728;2023-03-23T11:08:17;6.90;;;1.77;;
71413;SDS011;59226;53.212;5.728;2023-03-23T11:10:50;4.10;;;0.93;;
71413;SDS011;59226;53.212;5.728;2023-03-23T11:13:18;5.18;;;0.75;;
71413;SDS011;59226;53.212;5.728;2023-03-23T11:15:45;1.70;;;0.50;;
71413;SDS011;59226;53.212;5.728;2023-03-23T11:20:46;3.03;;;0.60;;
71413;SDS011;59226;53.212;5.728;2023-03-23T11:23:35;2.50;;;0.67;;
71413;SDS011;59226;53.212;5.728;2023-03-23T11:28:51;3.63;;;1.02;;
71413;SDS011;59226;53.212;5.728;2023-03-23T11:31:17;11.50;;;1.10;;
71413;SDS011;59226;53.212;5.728;2023-03-23T11:33:51;2.53;;;0.63;;
71413;SDS011;59226;53.212;5.728;2023-03-23T11:36:17;2.23;;;0.40;;
71413;SDS011;59226;53.212;5.728;2023-03-23T11:38:43;4.47;;;1.10;;
71413;SDS011;59226;53.212;5.728;2023-03-23T11:41:09;2.60;;;1.27;;
71413;SDS011;59226;53.212;5.728;2023-03-23T11:43:38;6.63;;;1.33;;
71413;SDS011;59226;53.212;5.728;2023-03-23T11:46:05;5.93;;;0.60;;
71413;SDS011;59226;53.212;5.728;2023-03-23T11:56:17;14.00;;;1.10;;
71413;SDS011;59226;53.212;5.728;2023-03-23T11:58:44;6.27;;;0.73;;
71413;SDS011;59226;53.212;5.728;2023-03-23T12:01:21;9.60;;;0.85;;
71413;SDS011;59226;53.212;5.728;2023-03-23T12:14:32;9.77;;;0.80;;
71413;SDS011;59226;53.212;5.728;2023-03-23T12:17:01;5.15;;;1.02;;
71413;SDS011;59226;53.212;5.728;2023-03-23T12:35:28;3.13;;;0.80;;
71413;SDS011;59226;53.212;5.728;2023-03-23T12:40:32;3.80;;;1.10;;
71413;SDS011;59226;53.212;5.728;2023-03-23T12:48:11;10.30;;;1.50;;
71413;SDS011;59226;53.212;5.728;2023-03-23T12:50:42;2.45;;;0.88;;
71413;SDS011;59226;53.212;5.728;2023-03-23T12:55:42;5.18;;;1.08;;
71413;SDS011;59226;53.212;5.728;2023-03-23T12:58:13;3.50;;;1.13;;
71413;SDS011;59226;53.212;5.728;2023-03-23T13:00:52;4.10;;;1.03;;
71413;SDS011;59226;53.212;5.728;2023-03-23T13:05:46;3.23;;;1.00;;
71413;SDS011;59226;53.212;5.728;2023-03-23T13:08:21;3.30;;;0.70;;
71413;SDS011;59226;53.212;5.728;2023-03-23T13:10:48;5.78;;;0.50;;
71413;SDS011;59226;53.212;5.728;2023-03-23T13:13:17;4.38;;;0.90;;
71413;SDS011;59226;53.212;5.728;2023-03-23T13:26:05;7.57;;;0.95;;
71413;SDS011;59226;53.212;5.728;2023-03-23T13:28:33;7.03;;;1.15;;
71413;SDS011;59226;53.212;5.728;2023-03-23T13:31:00;3.93;;;1.10;;
71413;SDS011;59226;53.212;5.728;2023-03-23T13:33:30;11.07;;;1.38;;
71413;SDS011;59226;53.212;5.728;2023-03-23T13:35:56;5.13;;;1.05;;
71413;SDS011;59226;53.212;5.728;2023-03-23T13:40:48;2.13;;;0.73;;
71413;SDS011;59226;53.212;5.728;2023-03-23T13:43:18;2.85;;;0.55;;
71413;SDS011;59226;53.212;5.728;2023-03-23T13:45:51;15.25;;;1.48;;
71413;SDS011;59226;53.212;5.728;2023-03-23T13:48:20;2.72;;;1.48;;
71413;SDS011;59226;53.212;5.728;2023-03-23T13:53:20;7.55;;;1.17;;
71413;SDS011;59226;53.212;5.728;2023-03-23T13:55:50;1.90;;;0.75;;
71413;SDS011;59226;53.212;5.728;2023-03-23T13:58:23;2.80;;;1.10;;
71413;SDS011;59226;53.212;5.728;2023-03-23T14:01:09;3.67;;;0.90;;
71413;SDS011;59226;53.212;5.728;2023-03-23T14:03:36;3.10;;;1.03;;
71413;SDS011;59226;53.212;5.728;2023-03-23T14:06:05;4.00;;;0.88;;
71413;SDS011;59226;53.212;5.728;2023-03-23T14:10:58;1.27;;;1.00;;
71413;SDS011;59226;53.212;5.728;2023-03-23T14:16:00;5.87;;;0.70;;
71413;SDS011;59226;53.212;5.728;2023-03-23T14:18:29;7.43;;;1.08;;
71413;SDS011;59226;53.212;5.728;2023-03-23T14:20:55;6.00;;;1.10;;
71413;SDS011;59226;53.212;5.728;2023-03-23T14:23:20;8.50;;;0.95;;
71413;SDS011;59226;53.212;5.728;2023-03-23T14:25:54;2.88;;;0.63;;
71413;SDS011;59226;53.212;5.728;2023-03-23T14:28:20;7.87;;;1.23;;
71413;SDS011;59226;53.212;5.728;2023-03-23T14:30:47;1.90;;;0.80;;
71413;SDS011;59226;53.212;5.728;2023-03-23T14:33:13;3.35;;;0.93;;
71413;SDS011;59226;53.212;5.728;2023-03-23T14:35:40;1.80;;;0.47;;
71413;SDS011;59226;53.212;5.728;2023-03-23T14:38:07;3.58;;;1.23;;
71413;SDS011;59226;53.212;5.728;2023-03-23T14:40:36;1.67;;;0.32;;
71413;SDS011;59226;53.212;5.728;2023-03-23T14:43:01;8.07;;;0.57;;
71413;SDS011;59226;53.212;5.728;2023-03-23T14:45:27;2.30;;;0.60;;
71413;SDS011;59226;53.212;5.728;2023-03-23T14:47:54;7.65;;;0.80;;
71413;SDS011;59226;53.212;5.728;2023-03-23T14:52:51;6.10;;;1.13;;
71413;SDS011;59226;53.212;5.728;2023-03-23T14:55:17;1.13;;;0.60;;
71413;SDS011;59226;53.212;5.728;2023-03-23T14:57:43;2.92;;;0.57;;
71413;SDS011;59226;53.212;5.728;2023-03-23T15:00:14;2.30;;;0.50;;
71413;SDS011;59226;53.212;5.728;2023-03-23T15:02:40;2.20;;;0.88;;
71413;SDS011;59226;53.212;5.728;2023-03-23T15:05:13;4.05;;;1.30;;
71413;SDS011;59226;53.212;5.728;2023-03-23T15:07:40;1.90;;;0.80;;
71413;SDS011;59226;53.212;5.728;2023-03-23T15:10:07;8.40;;;1.00;;
71413;SDS011;59226;53.212;5.728;2023-03-23T15:12:33;3.80;;;0.93;;
71413;SDS011;59226;53.212;5.728;2023-03-23T15:15:00;4.28;;;0.85;;
71413;SDS011;59226;53.212;5.728;2023-03-23T15:17:34;4.38;;;1.42;;
71413;SDS011;59226;53.212;5.728;2023-03-23T15:20:17;1.45;;;0.77;;
71413;SDS011;59226;53.212;5.728;2023-03-23T15:22:47;5.63;;;0.90;;
71413;SDS011;59226;53.212;5.728;2023-03-23T15:28:30;5.95;;;1.55;;
71413;SDS011;59226;53.212;5.728;2023-03-23T15:30:32;6.45;;;1.23;;
71413;SDS011;59226;53.212;5.728;2023-03-23T15:33:02;6.78;;;1.42;;
71413;SDS011;59226;53.212;5.728;2023-03-23T15:35:32;7.77;;;1.40;;
71413;SDS011;59226;53.212;5.728;2023-03-23T15:38:00;3.80;;;1.15;;
71413;SDS011;59226;53.212;5.728;2023-03-23T15:40:26;6.80;;;1.42;;
71413;SDS011;59226;53.212;5.728;2023-03-23T15:43:14;4.38;;;0.70;;
71413;SDS011;59226;53.212;5.728;2023-03-23T15:45:50;4.05;;;0.88;;
71413;SDS011;59226;53.212;5.728;2023-03-23T15:48:15;2.73;;;0.70;;
71413;SDS011;59226;53.212;5.728;2023-03-23T15:50:41;6.50;;;0.77;;
71413;SDS011;59226;53.212;5.728;2023-03-23T15:55:44;11.97;;;1.60;;
71413;SDS011;59226;53.212;5.728;2023-03-23T15:58:11;12.82;;;1.00;;
71413;SDS011;59226;53.212;5.728;2023-03-23T16:00:36;10.27;;;1.00;;
71413;SDS011;59226;53.212;5.728;2023-03-23T16:03:04;2.42;;;0.60;;
71413;SDS011;59226;53.212;5.728;2023-03-23T16:05:30;8.13;;;1.13;;
71413;SDS011;59226;53.212;5.728;2023-03-23T16:07:56;6.80;;;1.10;;
71413;SDS011;59226;53.212;5.728;2023-03-23T16:10:22;5.10;;;1.00;;
71413;SDS011;59226;53.212;5.728;2023-03-23T16:12:47;7.35;;;1.00;;
71413;SDS011;59226;53.212;5.728;2023-03-23T16:15:13;8.07;;;0.97;;
71413;SDS011;59226;53.212;5.728;2023-03-23T16:17:38;9.50;;;1.20;;
71413;SDS011;59226;53.212;5.728;2023-03-23T16:20:11;4.97;;;0.93;;
71413;SDS011;59226;53.212;5.728;2023-03-23T16:22:37;3.80;;;0.93;;
71413;SDS011;59226;53.212;5.728;2023-03-23T16:25:02;3.83;;;0.93;;
71413;SDS011;59226;53.212;5.728;2023-03-23T16:27:27;12.20;;;1.77;;
71413;SDS011;59226;53.212;5.728;2023-03-23T16:29:52;5.73;;;1.07;;
71413;SDS011;59226;53.212;5.728;2023-03-23T16:32:18;6.50;;;1.37;;
71413;SDS011;59226;53.212;5.728;2023-03-23T16:34:43;3.23;;;0.70;;
71413;SDS011;59226;53.212;5.728;2023-03-23T16:37:09;3.87;;;0.87;;
71413;SDS011;59226;53.212;5.728;2023-03-23T16:39:35;5.27;;;1.17;;
71413;SDS011;59226;53.212;5.728;2023-03-23T16:42:01;4.33;;;1.03;;
71413;SDS011;59226;53.212;5.728;2023-03-23T16:44:26;11.17;;;1.37;;
71413;SDS011;59226;53.212;5.728;2023-03-23T16:46:51;4.47;;;1.97;;